createdAt,value
2019-04-01T00:01:17.020Z,6.90
2019-04-01T00:03:52.265Z,6.90
2019-04-01T00:06:27.565Z,6.80
2019-04-01T00:09:02.847Z,6.80
2019-04-01T00:11:38.421Z,6.80
2019-04-01T00:14:13.502Z,6.80
2019-04-01T00:16:48.627Z,6.70
2019-04-01T00:19:23.783Z,6.70
2019-04-01T00:21:59.094Z,6.60
2019-04-01T00:24:34.280Z,6.60
2019-04-01T00:27:09.625Z,6.50
2019-04-01T00:29:44.866Z,6.50
2019-04-01T00:32:20.061Z,6.50
2019-04-01T00:34:55.511Z,6.50
2019-04-01T00:37:30.713Z,6.50
2019-04-01T00:40:05.963Z,6.40
2019-04-01T00:42:55.161Z,6.40
2019-04-01T00:45:32.133Z,6.40
2019-04-01T00:48:07.482Z,6.40
2019-04-01T00:50:42.665Z,6.30
2019-04-01T00:53:18.244Z,6.20
2019-04-01T00:55:53.790Z,6.20
2019-04-01T00:58:30.497Z,6.20
2019-04-01T01:01:05.970Z,6.20
2019-04-01T01:03:41.184Z,6.10
2019-04-01T01:06:16.406Z,6.10
2019-04-01T01:08:51.578Z,6.10
2019-04-01T01:11:27.092Z,6.00
2019-04-01T01:14:02.200Z,6.00
2019-04-01T01:16:37.358Z,6.00
2019-04-01T01:19:12.487Z,5.90
2019-04-01T01:21:47.658Z,5.90
2019-04-01T01:24:24.535Z,5.90
2019-04-01T01:26:59.711Z,5.80
2019-04-01T01:29:34.912Z,5.70
2019-04-01T01:32:10.179Z,5.70
2019-04-01T01:34:45.485Z,5.70
2019-04-01T01:37:21.652Z,5.70
2019-04-01T01:39:57.253Z,5.70
2019-04-01T01:42:32.335Z,5.60
2019-04-01T01:45:07.524Z,5.60
2019-04-01T01:47:45.668Z,5.60
2019-04-01T01:50:20.981Z,5.50
2019-04-01T01:52:56.141Z,5.50
2019-04-01T01:55:31.341Z,5.50
2019-04-01T01:58:07.589Z,5.50
2019-04-01T02:00:42.844Z,5.40
2019-04-01T02:03:19.617Z,5.40
2019-04-01T02:05:54.827Z,5.40
2019-04-01T02:08:29.983Z,5.30
2019-04-01T02:11:05.149Z,5.30
2019-04-01T02:13:40.308Z,5.30
2019-04-01T02:16:15.598Z,5.30
2019-04-01T02:18:50.670Z,5.30
2019-04-01T02:21:26.845Z,5.20
2019-04-01T02:24:01.949Z,5.20
2019-04-01T02:26:37.147Z,5.20
2019-04-01T02:29:12.321Z,5.10
2019-04-01T02:31:47.449Z,5.10
2019-04-01T02:34:22.534Z,5.00
2019-04-01T02:36:57.709Z,5.00
2019-04-01T02:39:33.246Z,4.90
2019-04-01T02:42:08.428Z,4.90
2019-04-01T02:44:43.627Z,4.90
2019-04-01T02:47:18.923Z,4.90
2019-04-01T02:49:54.018Z,4.80
2019-04-01T02:52:29.189Z,4.80
2019-04-01T02:55:06.874Z,4.80
2019-04-01T02:57:42.060Z,4.80
2019-04-01T03:00:17.202Z,4.70
2019-04-01T03:02:52.536Z,4.70
2019-04-01T03:05:27.885Z,4.70
2019-04-01T03:08:03.029Z,4.70
2019-04-01T03:10:38.195Z,4.70
2019-04-01T03:13:13.418Z,4.60
2019-04-01T03:15:49.556Z,4.60
2019-04-01T03:18:24.727Z,4.50
2019-04-01T03:20:59.903Z,4.50
2019-04-01T03:23:35.217Z,4.50
2019-04-01T03:26:10.452Z,4.50
2019-04-01T03:28:45.692Z,4.50
2019-04-01T03:31:20.876Z,4.40
2019-04-01T03:33:56.177Z,4.40
2019-04-01T03:36:31.335Z,4.40
2019-04-01T03:39:07.142Z,4.30
2019-04-01T03:41:42.344Z,4.30
2019-04-01T03:44:17.507Z,4.30
2019-04-01T03:46:52.679Z,4.30
2019-04-01T03:49:27.912Z,4.30
2019-04-01T03:52:03.101Z,4.20
2019-04-01T03:54:38.344Z,4.20
2019-04-01T03:57:13.501Z,4.20
2019-04-01T03:59:48.753Z,4.20
2019-04-01T04:02:23.820Z,4.20
2019-04-01T04:04:58.951Z,4.10
2019-04-01T04:07:34.113Z,4.10
2019-04-01T04:10:09.441Z,4.10
2019-04-01T04:12:44.607Z,4.10
2019-04-01T04:15:19.923Z,4.00
2019-04-01T04:17:55.084Z,4.00
2019-04-01T04:20:30.219Z,4.00
2019-04-01T04:23:05.398Z,4.00
2019-04-01T04:25:40.661Z,3.90
2019-04-01T04:28:16.060Z,3.90
2019-04-01T04:30:51.375Z,3.90
2019-04-01T04:33:26.531Z,3.80
2019-04-01T04:36:01.787Z,3.90
2019-04-01T04:38:36.956Z,3.80
2019-04-01T04:41:12.282Z,3.80
2019-04-01T04:43:47.472Z,3.80
2019-04-01T04:46:22.734Z,3.80
2019-04-01T04:48:57.885Z,3.80
2019-04-01T04:51:33.061Z,3.70
2019-04-01T04:54:08.213Z,3.70
2019-04-01T04:56:43.347Z,3.70
2019-04-01T04:59:18.519Z,3.60
2019-04-01T05:01:53.655Z,3.60
2019-04-01T05:04:28.897Z,3.60
2019-04-01T05:07:04.190Z,3.60
2019-04-01T05:09:40.307Z,3.60
2019-04-01T05:12:15.506Z,3.60
2019-04-01T05:14:50.574Z,3.50
2019-04-01T05:17:25.684Z,3.50
2019-04-01T05:20:00.779Z,3.50
2019-04-01T05:22:36.059Z,3.50
2019-04-01T05:25:11.232Z,3.50
2019-04-01T05:27:46.656Z,3.50
2019-04-01T05:30:21.750Z,3.50
2019-04-01T05:32:56.956Z,3.50
2019-04-01T05:35:33.480Z,3.50
2019-04-01T05:38:08.682Z,3.50
2019-04-01T05:40:43.966Z,3.50
2019-04-01T05:43:19.332Z,3.50
2019-04-01T05:45:54.583Z,3.60
2019-04-01T05:48:31.483Z,3.60
2019-04-01T05:51:07.631Z,3.60
2019-04-01T05:53:42.754Z,3.60
2019-04-01T05:56:17.921Z,3.60
2019-04-01T05:58:53.049Z,3.60
2019-04-01T06:01:33.402Z,3.60
2019-04-01T06:04:08.574Z,3.70
2019-04-01T06:06:43.732Z,3.70
2019-04-01T06:09:18.947Z,3.70
2019-04-01T06:11:54.143Z,3.80
2019-04-01T06:14:29.318Z,3.90
2019-04-01T06:17:04.499Z,4.00
2019-04-01T06:19:44.992Z,4.10
2019-04-01T06:22:20.119Z,4.00
2019-04-01T06:24:57.037Z,4.00
2019-04-01T06:27:34.994Z,4.00
2019-04-01T06:30:10.318Z,4.10
2019-04-01T06:32:45.571Z,4.10
2019-04-01T06:35:20.754Z,4.10
2019-04-01T06:37:56.280Z,4.20
2019-04-01T06:40:31.442Z,4.30
2019-04-01T06:43:06.696Z,4.30
2019-04-01T06:45:41.867Z,4.30
2019-04-01T06:48:17.535Z,4.40
2019-04-01T06:50:52.777Z,4.50
2019-04-01T06:53:27.965Z,4.50
2019-04-01T06:56:03.264Z,4.60
2019-04-01T06:58:38.560Z,4.60
2019-04-01T07:01:13.810Z,4.70
2019-04-01T07:03:48.981Z,4.70
2019-04-01T07:06:24.176Z,4.80
2019-04-01T07:08:59.330Z,4.90
2019-04-01T07:11:34.608Z,5.00
2019-04-01T07:14:10.081Z,5.10
2019-04-01T07:16:45.333Z,5.20
2019-04-01T07:19:20.507Z,5.30
2019-04-01T07:21:55.652Z,5.40
2019-04-01T07:24:30.791Z,5.50
2019-04-01T07:27:08.089Z,5.60
2019-04-01T07:29:42.839Z,5.70
2019-04-01T07:32:17.945Z,5.80
2019-04-01T07:34:53.117Z,5.90
2019-04-01T07:37:28.341Z,6.00
2019-04-01T07:40:03.839Z,6.10
2019-04-01T07:42:39.064Z,6.20
2019-04-01T07:45:14.332Z,6.20
2019-04-01T07:47:51.642Z,6.30
2019-04-01T07:50:26.319Z,6.40
2019-04-01T07:53:01.647Z,6.50
2019-04-01T07:55:37.531Z,6.60
2019-04-01T07:58:12.738Z,6.70
2019-04-01T08:00:47.914Z,6.80
2019-04-01T08:03:23.288Z,6.90
2019-04-01T08:05:58.498Z,7.00
2019-04-01T08:08:33.666Z,7.00
2019-04-01T08:11:08.814Z,7.10
2019-04-01T08:13:44.112Z,7.20
2019-04-01T08:16:19.698Z,7.30
2019-04-01T08:18:54.896Z,7.40
2019-04-01T08:21:29.996Z,7.50
2019-04-01T08:24:05.314Z,7.60
2019-04-01T08:26:40.832Z,7.70
2019-04-01T08:29:29.387Z,7.80
2019-04-01T08:31:53.012Z,8.00
2019-04-01T08:34:28.247Z,8.00
2019-04-01T08:37:04.568Z,8.10
2019-04-01T08:39:39.724Z,8.20
2019-04-01T08:42:14.902Z,8.20
2019-04-01T08:44:50.031Z,8.40
2019-04-01T08:47:25.529Z,8.50
2019-04-01T08:50:00.769Z,8.50
2019-04-01T08:52:35.941Z,8.60
2019-04-01T08:55:11.138Z,8.70
2019-04-01T08:57:46.299Z,8.80
2019-04-01T09:00:21.773Z,8.90
2019-04-01T09:02:57.061Z,9.00
2019-04-01T09:05:32.336Z,9.20
2019-04-01T09:08:07.507Z,9.30
2019-04-01T09:10:43.147Z,9.40
2019-04-01T09:13:18.321Z,9.50
2019-04-01T09:15:53.572Z,9.60
2019-04-01T09:18:28.767Z,9.70
2019-04-01T09:21:03.960Z,9.80
2019-04-01T09:23:39.048Z,9.80
2019-04-01T09:26:14.590Z,10.00
2019-04-01T09:28:49.659Z,10.10
2019-04-01T09:31:24.779Z,10.10
2019-04-01T09:34:00.016Z,10.20
2019-04-01T09:36:35.161Z,10.30
2019-04-01T09:39:10.357Z,10.40
2019-04-01T09:41:45.614Z,10.40
2019-04-01T09:44:30.462Z,10.40
2019-04-01T09:46:57.926Z,10.40
2019-04-01T09:49:34.120Z,10.50
2019-04-01T09:52:09.361Z,10.60
2019-04-01T09:54:44.592Z,10.70
2019-04-01T09:57:19.798Z,10.90
2019-04-01T09:59:58.090Z,11.00
2019-04-01T10:02:34.266Z,11.10
2019-04-01T10:05:10.301Z,11.20
2019-04-01T10:07:46.661Z,11.30
2019-04-01T10:10:21.752Z,11.50
2019-04-01T10:12:56.990Z,11.50
2019-04-01T10:15:32.266Z,11.50
2019-04-01T10:18:07.632Z,11.60
2019-04-01T10:20:42.867Z,11.80
2019-04-01T10:23:18.169Z,11.80
2019-04-01T10:25:53.370Z,11.90
2019-04-01T10:28:31.938Z,12.00
2019-04-01T10:31:05.335Z,12.00
2019-04-01T10:33:40.550Z,12.00
2019-04-01T10:36:15.799Z,12.20
2019-04-01T10:38:51.074Z,12.30
2019-04-01T10:41:26.331Z,12.30
2019-04-01T10:44:04.717Z,12.40
2019-04-01T10:46:40.738Z,12.50
2019-04-01T10:49:18.140Z,12.50
2019-04-01T10:51:53.397Z,12.60
2019-04-01T10:54:31.664Z,12.60
2019-04-01T10:57:08.483Z,12.70
2019-04-01T10:59:43.650Z,12.80
2019-04-01T11:02:18.887Z,12.80
2019-04-01T11:04:54.430Z,12.90
2019-04-01T11:07:29.736Z,12.90
2019-04-01T11:10:06.368Z,13.00
2019-04-01T11:12:41.618Z,13.10
2019-04-01T11:15:20.482Z,13.20
2019-04-01T11:17:56.708Z,13.30
2019-04-01T11:20:31.948Z,13.40
2019-04-01T11:23:07.131Z,13.40
2019-04-01T11:25:42.332Z,13.40
2019-04-01T11:28:17.515Z,13.50
2019-04-01T11:30:52.706Z,13.60
2019-04-01T11:33:27.948Z,13.60
2019-04-01T11:36:03.274Z,13.80
2019-04-01T11:38:38.439Z,13.70
2019-04-01T11:41:13.621Z,13.90
2019-04-01T11:43:48.817Z,14.00
2019-04-01T11:46:24.052Z,14.00
2019-04-01T11:48:59.247Z,14.10
2019-04-01T11:51:39.558Z,14.20
2019-04-01T11:54:11.256Z,14.20
2019-04-01T11:56:46.571Z,14.20
2019-04-01T11:59:21.795Z,14.20
2019-04-01T12:01:57.038Z,14.30
2019-04-01T12:04:32.188Z,14.40
2019-04-01T12:07:07.477Z,14.40
2019-04-01T12:09:42.655Z,14.50
2019-04-01T12:12:23.807Z,14.60
2019-04-01T12:14:56.281Z,14.60
2019-04-01T12:17:31.479Z,14.60
2019-04-01T12:20:06.693Z,14.70
2019-04-01T12:22:45.499Z,14.70
2019-04-01T12:25:18.619Z,14.80
2019-04-01T12:27:53.879Z,14.90
2019-04-01T12:30:29.038Z,15.00
2019-04-01T12:33:04.254Z,15.00
2019-04-01T12:35:39.652Z,15.00
2019-04-01T12:38:15.700Z,15.10
2019-04-01T12:40:51.691Z,15.00
2019-04-01T12:43:26.930Z,15.10
2019-04-01T12:46:02.085Z,15.10
2019-04-01T12:48:38.308Z,15.10
2019-04-01T12:51:13.522Z,15.10
2019-04-01T12:53:48.729Z,15.20
2019-04-01T12:56:23.880Z,15.30
2019-04-01T12:58:59.115Z,15.30
2019-04-01T13:01:37.256Z,15.30
2019-04-01T13:04:12.450Z,15.40
2019-04-01T13:06:47.548Z,15.30
2019-04-01T13:09:22.768Z,15.40
2019-04-01T13:11:57.914Z,15.50
2019-04-01T13:14:33.117Z,15.50
2019-04-01T13:17:08.356Z,15.60
2019-04-01T13:19:44.878Z,15.60
2019-04-01T13:22:20.211Z,15.70
2019-04-01T13:24:55.460Z,15.70
2019-04-01T13:27:30.627Z,15.70
2019-04-01T13:30:06.179Z,15.60
2019-04-01T13:32:41.319Z,15.70
2019-04-01T13:35:18.198Z,15.70
2019-04-01T13:37:53.367Z,15.80
2019-04-01T13:40:28.490Z,15.80
2019-04-01T13:43:04.763Z,15.80
2019-04-01T13:45:40.064Z,16.00
2019-04-01T13:48:16.630Z,16.00
2019-04-01T13:50:52.452Z,16.00
2019-04-01T13:53:28.569Z,16.00
2019-04-01T13:56:03.796Z,16.00
2019-04-01T13:58:39.398Z,16.00
2019-04-01T14:01:14.898Z,16.10
2019-04-01T14:03:50.056Z,16.10
2019-04-01T14:06:25.160Z,16.10
2019-04-01T14:09:00.711Z,16.20
2019-04-01T14:11:44.899Z,16.20
2019-04-01T14:14:20.007Z,16.20
2019-04-01T14:16:55.332Z,16.20
2019-04-01T14:19:30.511Z,16.20
2019-04-01T14:22:05.706Z,16.20
2019-04-01T14:24:42.578Z,16.30
2019-04-01T14:27:17.699Z,16.30
2019-04-01T14:29:55.905Z,16.30
2019-04-01T14:32:31.141Z,16.30
2019-04-01T14:35:06.759Z,16.30
2019-04-01T14:37:42.111Z,16.20
2019-04-01T14:40:17.370Z,16.30
2019-04-01T14:42:52.611Z,16.30
2019-04-01T14:45:27.771Z,16.20
2019-04-01T14:48:03.055Z,16.20
2019-04-01T14:50:38.195Z,16.20
2019-04-01T14:53:13.335Z,16.20
2019-04-01T14:55:48.497Z,16.30
2019-04-01T14:58:24.007Z,16.20
2019-04-01T15:01:01.326Z,16.30
2019-04-01T15:03:37.122Z,16.30
2019-04-01T15:06:12.242Z,16.20
2019-04-01T15:08:48.264Z,16.40
2019-04-01T15:11:23.711Z,16.40
2019-04-01T15:14:00.240Z,16.40
2019-04-01T15:16:36.475Z,16.30
2019-04-01T15:19:13.013Z,16.30
2019-04-01T15:21:48.318Z,16.30
2019-04-01T15:24:23.493Z,16.20
2019-04-01T15:26:58.710Z,16.20
2019-04-01T15:29:33.990Z,16.20
2019-04-01T15:32:09.120Z,16.20
2019-04-01T15:34:44.344Z,16.10
2019-04-01T15:37:19.853Z,16.10
2019-04-01T15:39:55.077Z,16.10
2019-04-01T15:42:30.416Z,16.00
2019-04-01T15:45:06.345Z,15.90
2019-04-01T15:47:42.021Z,15.90
2019-04-01T15:50:28.392Z,15.80
2019-04-01T15:52:54.098Z,15.80
2019-04-01T15:55:29.624Z,15.70
2019-04-01T15:58:05.707Z,15.70
2019-04-01T16:00:40.998Z,15.60
2019-04-01T16:03:16.311Z,15.60
2019-04-01T16:05:51.637Z,15.50
2019-04-01T16:08:26.747Z,15.40
2019-04-01T16:11:01.977Z,15.30
2019-04-01T16:13:43.891Z,15.30
2019-04-01T16:16:19.066Z,15.20
2019-04-01T16:18:54.233Z,15.20
2019-04-01T16:21:31.468Z,15.10
2019-04-01T16:24:06.387Z,15.10
2019-04-01T16:26:41.783Z,15.10
2019-04-01T16:29:16.929Z,15.00
2019-04-01T16:31:55.349Z,15.00
2019-04-01T16:34:29.861Z,14.90
2019-04-01T16:37:05.052Z,14.90
2019-04-01T16:39:40.272Z,14.80
2019-04-01T16:42:15.481Z,14.80
2019-04-01T16:44:53.930Z,14.70
2019-04-01T16:47:27.483Z,14.60
2019-04-01T16:50:02.673Z,14.60
2019-04-01T16:52:37.875Z,14.60
2019-04-01T16:55:14.164Z,14.50
2019-04-01T16:57:49.514Z,14.40
2019-04-01T17:00:25.975Z,14.40
2019-04-01T17:03:01.330Z,14.30
2019-04-01T17:05:36.688Z,14.30
2019-04-01T17:08:11.953Z,14.20
2019-04-01T17:10:47.137Z,14.10
2019-04-01T17:13:22.344Z,14.00
2019-04-01T17:15:57.558Z,13.90
2019-04-01T17:18:32.829Z,13.90
2019-04-01T17:21:08.084Z,13.80
2019-04-01T17:23:43.379Z,13.70
2019-04-01T17:26:18.628Z,13.70
2019-04-01T17:28:53.889Z,13.60
2019-04-01T17:31:29.091Z,13.60
2019-04-01T17:34:04.391Z,13.50
2019-04-01T17:36:40.124Z,13.40
2019-04-01T17:39:15.649Z,13.40
2019-04-01T17:41:50.898Z,13.30
2019-04-01T17:44:26.184Z,13.30
2019-04-01T17:47:01.364Z,13.20
2019-04-01T17:49:36.607Z,13.10
2019-04-01T17:52:11.925Z,13.00
2019-04-01T17:54:47.999Z,12.90
2019-04-01T17:57:23.297Z,12.90
2019-04-01T17:59:58.513Z,12.80
2019-04-01T18:02:33.691Z,12.70
2019-04-01T18:05:09.734Z,12.70
2019-04-01T18:07:45.889Z,12.60
2019-04-01T18:10:21.130Z,12.50
2019-04-01T18:12:56.358Z,12.40
2019-04-01T18:15:31.551Z,12.40
2019-04-01T18:18:06.801Z,12.30
2019-04-01T18:20:42.021Z,12.20
2019-04-01T18:23:17.083Z,12.20
2019-04-01T18:25:52.273Z,12.10
2019-04-01T18:28:27.458Z,12.00
2019-04-01T18:31:03.984Z,11.90
2019-04-01T18:33:39.287Z,11.80
2019-04-01T18:36:14.445Z,11.80
2019-04-01T18:38:49.694Z,11.80
2019-04-01T18:41:25.789Z,11.80
2019-04-01T18:44:01.186Z,11.70
2019-04-01T18:46:36.390Z,11.70
2019-04-01T18:49:11.582Z,11.70
2019-04-01T18:51:46.854Z,11.70
2019-04-01T18:54:22.048Z,11.60
2019-04-01T18:56:58.353Z,11.60
2019-04-01T18:59:33.928Z,11.60
2019-04-01T19:02:09.073Z,11.50
2019-04-01T19:04:44.200Z,11.40
2019-04-01T19:07:21.836Z,11.40
2019-04-01T19:10:06.172Z,11.40
2019-04-01T19:12:35.907Z,11.30
2019-04-01T19:15:12.093Z,11.30
2019-04-01T19:17:47.355Z,11.20
2019-04-01T19:20:22.528Z,11.30
2019-04-01T19:22:57.849Z,11.20
2019-04-01T19:25:33.055Z,11.10
2019-04-01T19:28:08.326Z,11.10
2019-04-01T19:30:43.570Z,11.10
2019-04-01T19:33:18.732Z,11.10
2019-04-01T19:35:53.923Z,11.10
2019-04-01T19:38:29.486Z,11.10
2019-04-01T19:41:10.365Z,11.00
2019-04-01T19:43:49.681Z,11.00
2019-04-01T19:46:24.509Z,11.00
2019-04-01T19:49:01.239Z,10.90
2019-04-01T19:51:36.580Z,10.90
2019-04-01T19:54:11.770Z,10.90
2019-04-01T19:56:49.038Z,10.80
2019-04-01T19:59:26.001Z,10.80
2019-04-01T20:02:01.030Z,10.80
2019-04-01T20:04:36.222Z,10.80
2019-04-01T20:07:11.396Z,10.70
2019-04-01T20:09:47.637Z,10.70
2019-04-01T20:12:23.372Z,10.70
2019-04-01T20:14:58.933Z,10.60
2019-04-01T20:17:35.253Z,10.60
2019-04-01T20:20:10.496Z,10.60
2019-04-01T20:22:45.832Z,10.60
2019-04-01T20:25:21.293Z,10.60
2019-04-01T20:27:56.529Z,10.60
2019-04-01T20:30:31.743Z,10.60
2019-04-01T20:33:16.882Z,10.50
2019-04-01T20:35:43.862Z,10.50
2019-04-01T20:38:19.037Z,10.50
2019-04-01T20:40:57.246Z,10.50
2019-04-01T20:43:32.541Z,10.40
2019-04-01T20:46:07.811Z,10.40
2019-04-01T20:48:42.927Z,10.40
2019-04-01T20:51:20.257Z,10.40
2019-04-01T20:53:55.460Z,10.40
2019-04-01T20:56:30.765Z,10.30
2019-04-01T20:59:07.048Z,10.30
2019-04-01T21:01:42.214Z,10.30
2019-04-01T21:04:17.414Z,10.30
2019-04-01T21:06:52.689Z,10.30
2019-04-01T21:09:35.698Z,10.30
2019-04-01T21:12:08.401Z,10.30
2019-04-01T21:14:43.846Z,10.30
2019-04-01T21:17:19.067Z,10.30
2019-04-01T21:19:55.336Z,10.30
2019-04-01T21:22:30.611Z,10.20
2019-04-01T21:25:06.100Z,10.20
2019-04-01T21:27:41.380Z,10.20
2019-04-01T21:30:16.598Z,10.20
2019-04-01T21:32:51.918Z,10.20
2019-04-01T21:35:29.044Z,10.20
2019-04-01T21:38:05.769Z,10.10
2019-04-01T21:40:41.028Z,10.10
2019-04-01T21:43:16.297Z,10.10
2019-04-01T21:45:51.488Z,10.10
2019-04-01T21:48:26.640Z,10.00
2019-04-01T21:51:05.398Z,10.00
2019-04-01T21:53:40.579Z,9.90
2019-04-01T21:56:15.797Z,9.90
2019-04-01T21:58:52.664Z,9.90
2019-04-01T22:01:28.033Z,9.90
2019-04-01T22:04:03.509Z,9.80
2019-04-01T22:06:38.678Z,9.80
2019-04-01T22:09:17.917Z,9.80
2019-04-01T22:11:53.059Z,9.60
2019-04-01T22:14:28.337Z,9.70
2019-04-01T22:17:03.585Z,9.60
2019-04-01T22:19:38.812Z,9.60
2019-04-01T22:22:13.978Z,9.60
2019-04-01T22:24:49.169Z,9.50
2019-04-01T22:27:24.887Z,9.50
2019-04-01T22:30:00.139Z,9.40
2019-04-01T22:32:35.339Z,9.40
2019-04-01T22:35:10.465Z,9.30
2019-04-01T22:37:45.560Z,9.20
2019-04-01T22:40:20.782Z,9.20
2019-04-01T22:42:56.202Z,9.20
2019-04-01T22:45:31.780Z,9.20
2019-04-01T22:48:07.007Z,9.10
2019-04-01T22:50:46.932Z,9.10
2019-04-01T22:53:20.732Z,9.00
2019-04-01T22:55:56.340Z,8.90
2019-04-01T22:58:32.478Z,9.00
2019-04-01T23:01:07.660Z,8.90
2019-04-01T23:03:43.070Z,8.90
2019-04-01T23:06:18.286Z,8.80
2019-04-01T23:08:53.478Z,8.80
2019-04-01T23:11:28.990Z,8.80
2019-04-01T23:14:04.150Z,8.80
2019-04-01T23:16:39.341Z,8.70
2019-04-01T23:19:14.581Z,8.70
2019-04-01T23:21:49.780Z,8.70
2019-04-01T23:24:25.278Z,8.70
2019-04-01T23:27:00.589Z,8.70
2019-04-01T23:29:35.759Z,8.70
2019-04-01T23:32:10.893Z,8.60
2019-04-01T23:34:46.059Z,8.60
2019-04-01T23:37:21.237Z,8.60
2019-04-01T23:39:56.777Z,8.50
2019-04-01T23:42:31.850Z,8.50
2019-04-01T23:45:07.272Z,8.40
2019-04-01T23:47:42.437Z,8.40
2019-04-01T23:50:17.648Z,8.30
2019-04-01T23:52:52.780Z,8.30
2019-04-01T23:55:29.107Z,8.20
2019-04-01T23:58:04.342Z,8.20
